sensor_id;sensor_type;location;lat;lon;timestamp;P1;durP1;ratioP1;P2;durP2;ratioP2
4971;SDS011;2501;51.214;6.768;2023-05-10T00:00:36;16.83;;;11.38;;
4971;SDS011;2501;51.214;6.768;2023-05-10T00:03:04;17.48;;;11.60;;
4971;SDS011;2501;51.214;6.768;2023-05-10T00:05:35;18.88;;;11.40;;
4971;SDS011;2501;51.214;6.768;2023-05-10T00:08:04;22.30;;;13.82;;
4971;SDS011;2501;51.214;6.768;2023-05-10T00:10:32;21.20;;;13.68;;
4971;SDS011;2501;51.214;6.768;2023-05-10T00:13:02;22.05;;;13.27;;
4971;SDS011;2501;51.214;6.768;2023-05-10T00:15:30;21.20;;;13.98;;
4971;SDS011;2501;51.214;6.768;2023-05-10T00:17:59;25.58;;;15.88;;
4971;SDS011;2501;51.214;6.768;2023-05-10T00:20:28;27.70;;;17.08;;
4971;SDS011;2501;51.214;6.768;2023-05-10T00:22:59;28.70;;;16.38;;
4971;SDS011;2501;51.214;6.768;2023-05-10T00:25:27;31.60;;;19.03;;
4971;SDS011;2501;51.214;6.768;2023-05-10T00:27:56;26.93;;;17.03;;
4971;SDS011;2501;51.214;6.768;2023-05-10T00:30:26;26.38;;;16.15;;
4971;SDS011;2501;51.214;6.768;2023-05-10T00:32:54;25.60;;;15.33;;
4971;SDS011;2501;51.214;6.768;2023-05-10T00:35:23;27.27;;;15.80;;
4971;SDS011;2501;51.214;6.768;2023-05-10T00:37:52;22.40;;;14.13;;
4971;SDS011;2501;51.214;6.768;2023-05-10T00:40:23;22.95;;;14.40;;
4971;SDS011;2501;51.214;6.768;2023-05-10T00:42:51;27.55;;;15.25;;
4971;SDS011;2501;51.214;6.768;2023-05-10T00:45:20;21.60;;;12.77;;
4971;SDS011;2501;51.214;6.768;2023-05-10T00:47:49;18.20;;;11.73;;
4971;SDS011;2501;51.214;6.768;2023-05-10T00:50:20;17.58;;;11.65;;
4971;SDS011;2501;51.214;6.768;2023-05-10T00:52:48;19.40;;;11.90;;
4971;SDS011;2501;51.214;6.768;2023-05-10T00:55:18;16.00;;;10.98;;
4971;SDS011;2501;51.214;6.768;2023-05-10T00:57:49;15.15;;;10.80;;
4971;SDS011;2501;51.214;6.768;2023-05-10T01:00:17;15.95;;;11.40;;
4971;SDS011;2501;51.214;6.768;2023-05-10T01:02:46;18.33;;;11.80;;
4971;SDS011;2501;51.214;6.768;2023-05-10T01:05:15;17.50;;;10.50;;
4971;SDS011;2501;51.214;6.768;2023-05-10T01:07:43;14.07;;;10.10;;
4971;SDS011;2501;51.214;6.768;2023-05-10T01:10:13;15.57;;;9.83;;
4971;SDS011;2501;51.214;6.768;2023-05-10T01:12:42;15.52;;;11.00;;
4971;SDS011;2501;51.214;6.768;2023-05-10T01:15:15;15.35;;;10.82;;
4971;SDS011;2501;51.214;6.768;2023-05-10T01:17:46;16.40;;;11.30;;
4971;SDS011;2501;51.214;6.768;2023-05-10T01:20:16;16.70;;;10.88;;
4971;SDS011;2501;51.214;6.768;2023-05-10T01:29:08;15.02;;;10.90;;
4971;SDS011;2501;51.214;6.768;2023-05-10T01:32:02;15.85;;;10.35;;
4971;SDS011;2501;51.214;6.768;2023-05-10T01:34:46;14.95;;;11.00;;
4971;SDS011;2501;51.214;6.768;2023-05-10T01:37:21;15.90;;;10.30;;
4971;SDS011;2501;51.214;6.768;2023-05-10T01:39:58;19.25;;;10.93;;
4971;SDS011;2501;51.214;6.768;2023-05-10T01:42:36;17.00;;;10.85;;
4971;SDS011;2501;51.214;6.768;2023-05-10T01:45:14;15.85;;;10.88;;
4971;SDS011;2501;51.214;6.768;2023-05-10T01:47:54;16.15;;;10.95;;
4971;SDS011;2501;51.214;6.768;2023-05-10T01:50:30;16.15;;;11.57;;
4971;SDS011;2501;51.214;6.768;2023-05-10T01:53:00;17.98;;;11.18;;
4971;SDS011;2501;51.214;6.768;2023-05-10T01:55:32;17.90;;;11.63;;
4971;SDS011;2501;51.214;6.768;2023-05-10T01:58:03;16.17;;;11.25;;
4971;SDS011;2501;51.214;6.768;2023-05-10T02:00:35;16.17;;;10.68;;
4971;SDS011;2501;51.214;6.768;2023-05-10T02:03:13;17.20;;;10.82;;
4971;SDS011;2501;51.214;6.768;2023-05-10T02:05:44;14.65;;;10.98;;
4971;SDS011;2501;51.214;6.768;2023-05-10T02:08:16;15.75;;;10.50;;
4971;SDS011;2501;51.214;6.768;2023-05-10T02:10:46;15.80;;;10.00;;
4971;SDS011;2501;51.214;6.768;2023-05-10T02:13:17;14.30;;;9.43;;
4971;SDS011;2501;51.214;6.768;2023-05-10T02:15:46;15.70;;;8.93;;
4971;SDS011;2501;51.214;6.768;2023-05-10T02:18:19;13.27;;;8.80;;
4971;SDS011;2501;51.214;6.768;2023-05-10T02:20:50;14.17;;;8.70;;
4971;SDS011;2501;51.214;6.768;2023-05-10T02:23:21;11.73;;;7.78;;
4971;SDS011;2501;51.214;6.768;2023-05-10T02:25:51;12.52;;;7.82;;
4971;SDS011;2501;51.214;6.768;2023-05-10T02:28:22;12.00;;;7.63;;
4971;SDS011;2501;51.214;6.768;2023-05-10T02:30:52;12.98;;;8.23;;
4971;SDS011;2501;51.214;6.768;2023-05-10T02:33:25;13.00;;;7.60;;
4971;SDS011;2501;51.214;6.768;2023-05-10T02:35:54;12.65;;;8.60;;
4971;SDS011;2501;51.214;6.768;2023-05-10T02:38:24;11.85;;;8.40;;
4971;SDS011;2501;51.214;6.768;2023-05-10T02:40:55;14.35;;;8.77;;
4971;SDS011;2501;51.214;6.768;2023-05-10T02:43:25;12.93;;;8.95;;
4971;SDS011;2501;51.214;6.768;2023-05-10T02:45:54;14.23;;;8.63;;
4971;SDS011;2501;51.214;6.768;2023-05-10T02:48:25;14.30;;;8.55;;
4971;SDS011;2501;51.214;6.768;2023-05-10T02:50:54;8.93;;;7.10;;
4971;SDS011;2501;51.214;6.768;2023-05-10T02:53:27;13.65;;;8.10;;
4971;SDS011;2501;51.214;6.768;2023-05-10T02:56:00;11.27;;;8.35;;
4971;SDS011;2501;51.214;6.768;2023-05-10T02:58:32;12.50;;;7.85;;
4971;SDS011;2501;51.214;6.768;2023-05-10T03:01:01;14.73;;;7.55;;
4971;SDS011;2501;51.214;6.768;2023-05-10T03:03:32;11.75;;;8.48;;
4971;SDS011;2501;51.214;6.768;2023-05-10T03:06:00;11.38;;;7.70;;
4971;SDS011;2501;51.214;6.768;2023-05-10T03:08:29;10.82;;;8.40;;
4971;SDS011;2501;51.214;6.768;2023-05-10T03:11:01;14.68;;;9.40;;
4971;SDS011;2501;51.214;6.768;2023-05-10T03:13:48;13.30;;;8.90;;
4971;SDS011;2501;51.214;6.768;2023-05-10T03:16:29;14.23;;;8.88;;
4971;SDS011;2501;51.214;6.768;2023-05-10T03:19:15;12.53;;;8.23;;
4971;SDS011;2501;51.214;6.768;2023-05-10T03:21:50;15.07;;;9.35;;
4971;SDS011;2501;51.214;6.768;2023-05-10T03:24:21;14.50;;;8.13;;
4971;SDS011;2501;51.214;6.768;2023-05-10T03:26:55;14.90;;;8.80;;
4971;SDS011;2501;51.214;6.768;2023-05-10T03:29:27;16.50;;;8.82;;
4971;SDS011;2501;51.214;6.768;2023-05-10T03:31:57;11.57;;;7.80;;
4971;SDS011;2501;51.214;6.768;2023-05-10T03:34:29;12.90;;;8.20;;
4971;SDS011;2501;51.214;6.768;2023-05-10T03:36:58;14.57;;;8.90;;
4971;SDS011;2501;51.214;6.768;2023-05-10T03:39:26;13.00;;;7.70;;
4971;SDS011;2501;51.214;6.768;2023-05-10T03:41:55;9.00;;;7.40;;
4971;SDS011;2501;51.214;6.768;2023-05-10T03:44:23;12.32;;;8.00;;
4971;SDS011;2501;51.214;6.768;2023-05-10T03:46:52;15.23;;;8.82;;
4971;SDS011;2501;51.214;6.768;2023-05-10T03:49:22;11.55;;;7.68;;
4971;SDS011;2501;51.214;6.768;2023-05-10T03:51:53;13.50;;;8.57;;
4971;SDS011;2501;51.214;6.768;2023-05-10T03:54:21;14.48;;;9.50;;
4971;SDS011;2501;51.214;6.768;2023-05-10T03:56:50;12.90;;;8.82;;
4971;SDS011;2501;51.214;6.768;2023-05-10T03:59:18;17.20;;;10.30;;
4971;SDS011;2501;51.214;6.768;2023-05-10T04:01:47;14.65;;;9.73;;
4971;SDS011;2501;51.214;6.768;2023-05-10T04:04:15;15.45;;;9.90;;
4971;SDS011;2501;51.214;6.768;2023-05-10T04:06:45;14.47;;;10.83;;
4971;SDS011;2501;51.214;6.768;2023-05-10T04:09:16;15.50;;;9.80;;
4971;SDS011;2501;51.214;6.768;2023-05-10T04:11:45;20.02;;;11.88;;
4971;SDS011;2501;51.214;6.768;2023-05-10T04:14:13;17.87;;;11.53;;
4971;SDS011;2501;51.214;6.768;2023-05-10T04:16:42;20.07;;;12.03;;
4971;SDS011;2501;51.214;6.768;2023-05-10T04:19:10;19.92;;;12.35;;
4971;SDS011;2501;51.214;6.768;2023-05-10T04:21:39;24.42;;;13.25;;
4971;SDS011;2501;51.214;6.768;2023-05-10T04:24:07;20.98;;;13.15;;
4971;SDS011;2501;51.214;6.768;2023-05-10T04:26:38;25.48;;;14.43;;
4971;SDS011;2501;51.214;6.768;2023-05-10T04:29:06;21.98;;;14.10;;
4971;SDS011;2501;51.214;6.768;2023-05-10T04:31:35;26.63;;;14.23;;
4971;SDS011;2501;51.214;6.768;2023-05-10T04:34:04;30.83;;;15.50;;
4971;SDS011;2501;51.214;6.768;2023-05-10T04:36:32;27.67;;;14.73;;
4971;SDS011;2501;51.214;6.768;2023-05-10T04:39:01;27.50;;;16.30;;
4971;SDS011;2501;51.214;6.768;2023-05-10T04:41:30;30.25;;;15.95;;
4971;SDS011;2501;51.214;6.768;2023-05-10T04:44:01;32.97;;;16.17;;
4971;SDS011;2501;51.214;6.768;2023-05-10T04:46:30;33.70;;;16.83;;
4971;SDS011;2501;51.214;6.768;2023-05-10T04:48:58;28.15;;;15.65;;
4971;SDS011;2501;51.214;6.768;2023-05-10T04:51:27;31.20;;;17.48;;
4971;SDS011;2501;51.214;6.768;2023-05-10T04:53:55;32.72;;;17.90;;
4971;SDS011;2501;51.214;6.768;2023-05-10T04:56:24;31.95;;;17.45;;
4971;SDS011;2501;51.214;6.768;2023-05-10T04:58:52;35.25;;;17.13;;
4971;SDS011;2501;51.214;6.768;2023-05-10T05:01:23;33.67;;;16.90;;
4971;SDS011;2501;51.214;6.768;2023-05-10T05:03:52;34.65;;;17.60;;
4971;SDS011;2501;51.214;6.768;2023-05-10T05:06:20;30.42;;;16.67;;
4971;SDS011;2501;51.214;6.768;2023-05-10T05:08:50;33.47;;;16.50;;
4971;SDS011;2501;51.214;6.768;2023-05-10T05:11:18;30.55;;;15.93;;
4971;SDS011;2501;51.214;6.768;2023-05-10T05:13:47;30.80;;;16.83;;
4971;SDS011;2501;51.214;6.768;2023-05-10T05:16:15;27.38;;;15.02;;
4971;SDS011;2501;51.214;6.768;2023-05-10T05:18:46;29.23;;;15.70;;
4971;SDS011;2501;51.214;6.768;2023-05-10T05:21:15;26.00;;;15.15;;
4971;SDS011;2501;51.214;6.768;2023-05-10T05:23:44;28.73;;;15.27;;
4971;SDS011;2501;51.214;6.768;2023-05-10T05:26:12;24.98;;;14.07;;
4971;SDS011;2501;51.214;6.768;2023-05-10T05:28:41;25.20;;;15.00;;
4971;SDS011;2501;51.214;6.768;2023-05-10T05:31:10;24.83;;;13.95;;
4971;SDS011;2501;51.214;6.768;2023-05-10T05:33:38;27.40;;;14.70;;
4971;SDS011;2501;51.214;6.768;2023-05-10T05:36:10;20.05;;;13.63;;
4971;SDS011;2501;51.214;6.768;2023-05-10T05:38:38;24.45;;;14.40;;
4971;SDS011;2501;51.214;6.768;2023-05-10T05:41:07;22.58;;;13.60;;
4971;SDS011;2501;51.214;6.768;2023-05-10T05:43:36;36.35;;;14.82;;
4971;SDS011;2501;51.214;6.768;2023-05-10T05:46:04;29.48;;;14.43;;
4971;SDS011;2501;51.214;6.768;2023-05-10T05:48:33;28.65;;;12.95;;
4971;SDS011;2501;51.214;6.768;2023-05-10T05:51:01;26.83;;;13.80;;
4971;SDS011;2501;51.214;6.768;2023-05-10T05:53:33;26.07;;;14.23;;
4971;SDS011;2501;51.214;6.768;2023-05-10T05:56:02;22.17;;;12.93;;
4971;SDS011;2501;51.214;6.768;2023-05-10T05:58:30;24.20;;;12.27;;
4971;SDS011;2501;51.214;6.768;2023-05-10T06:00:59;28.33;;;14.10;;
4971;SDS011;2501;51.214;6.768;2023-05-10T06:03:27;28.08;;;12.57;;
4971;SDS011;2501;51.214;6.768;2023-05-10T06:05:56;21.08;;;11.90;;
4971;SDS011;2501;51.214;6.768;2023-05-10T06:08:24;21.90;;;12.50;;
4971;SDS011;2501;51.214;6.768;2023-05-10T06:10:55;23.55;;;13.32;;
4971;SDS011;2501;51.214;6.768;2023-05-10T06:13:23;26.90;;;14.00;;
4971;SDS011;2501;51.214;6.768;2023-05-10T06:15:57;38.13;;;14.27;;
4971;SDS011;2501;51.214;6.768;2023-05-10T06:18:25;31.70;;;14.90;;
4971;SDS011;2501;51.214;6.768;2023-05-10T06:20:54;28.60;;;14.55;;
4971;SDS011;2501;51.214;6.768;2023-05-10T06:23:22;37.30;;;15.10;;
4971;SDS011;2501;51.214;6.768;2023-05-10T06:25:51;26.70;;;14.53;;
4971;SDS011;2501;51.214;6.768;2023-05-10T06:28:22;28.40;;;16.55;;
4971;SDS011;2501;51.214;6.768;2023-05-10T06:30:51;33.70;;;16.75;;
4971;SDS011;2501;51.214;6.768;2023-05-10T06:33:19;29.73;;;16.15;;
4971;SDS011;2501;51.214;6.768;2023-05-10T06:35:47;27.43;;;15.00;;
4971;SDS011;2501;51.214;6.768;2023-05-10T06:38:16;26.67;;;14.30;;
4971;SDS011;2501;51.214;6.768;2023-05-10T06:40:44;24.30;;;13.47;;
4971;SDS011;2501;51.214;6.768;2023-05-10T06:43:13;23.40;;;13.60;;
4971;SDS011;2501;51.214;6.768;2023-05-10T06:45:44;23.45;;;13.05;;
4971;SDS011;2501;51.214;6.768;2023-05-10T06:48:13;27.83;;;14.60;;
4971;SDS011;2501;51.214;6.768;2023-05-10T06:50:41;25.75;;;13.32;;
4971;SDS011;2501;51.214;6.768;2023-05-10T06:53:09;28.30;;;15.02;;
4971;SDS011;2501;51.214;6.768;2023-05-10T06:55:38;33.75;;;15.30;;
4971;SDS011;2501;51.214;6.768;2023-05-10T06:58:06;33.05;;;15.48;;
4971;SDS011;2501;51.214;6.768;2023-05-10T07:00:35;34.28;;;16.10;;
4971;SDS011;2501;51.214;6.768;2023-05-10T07:03:08;33.00;;;15.68;;
4971;SDS011;2501;51.214;6.768;2023-05-10T07:05:36;42.17;;;16.30;;
4971;SDS011;2501;51.214;6.768;2023-05-10T07:08:05;33.45;;;16.08;;
4971;SDS011;2501;51.214;6.768;2023-05-10T07:10:33;24.95;;;15.23;;
4971;SDS011;2501;51.214;6.768;2023-05-10T07:13:02;30.85;;;14.35;;
4971;SDS011;2501;51.214;6.768;2023-05-10T07:15:30;33.03;;;14.60;;
4971;SDS011;2501;51.214;6.768;2023-05-10T07:17:58;28.48;;;14.75;;
4971;SDS011;2501;51.214;6.768;2023-05-10T07:20:29;24.75;;;13.20;;
4971;SDS011;2501;51.214;6.768;2023-05-10T07:22:58;26.10;;;13.20;;
4971;SDS011;2501;51.214;6.768;2023-05-10T07:25:27;32.33;;;12.60;;
4971;SDS011;2501;51.214;6.768;2023-05-10T07:27:55;22.52;;;11.85;;
4971;SDS011;2501;51.214;6.768;2023-05-10T07:30:24;21.38;;;11.60;;
4971;SDS011;2501;51.214;6.768;2023-05-10T07:32:52;23.00;;;11.95;;
4971;SDS011;2501;51.214;6.768;2023-05-10T07:35:21;22.50;;;10.57;;
4971;SDS011;2501;51.214;6.768;2023-05-10T07:37:52;23.92;;;10.95;;
4971;SDS011;2501;51.214;6.768;2023-05-10T07:40:20;17.10;;;10.33;;
4971;SDS011;2501;51.214;6.768;2023-05-10T07:42:49;19.00;;;9.95;;
4971;SDS011;2501;51.214;6.768;2023-05-10T07:45:17;20.98;;;10.32;;
4971;SDS011;2501;51.214;6.768;2023-05-10T07:47:46;21.13;;;11.52;;
4971;SDS011;2501;51.214;6.768;2023-05-10T07:50:14;19.00;;;11.43;;
4971;SDS011;2501;51.214;6.768;2023-05-10T07:52:43;38.30;;;17.60;;
4971;SDS011;2501;51.214;6.768;2023-05-10T07:55:14;87.50;;;21.98;;
4971;SDS011;2501;51.214;6.768;2023-05-10T07:57:43;53.78;;;20.98;;
4971;SDS011;2501;51.214;6.768;2023-05-10T08:00:12;66.47;;;24.40;;
4971;SDS011;2501;51.214;6.768;2023-05-10T08:02:44;53.40;;;22.40;;
4971;SDS011;2501;51.214;6.768;2023-05-10T08:05:13;78.63;;;26.67;;
4971;SDS011;2501;51.214;6.768;2023-05-10T08:07:42;54.47;;;23.42;;
4971;SDS011;2501;51.214;6.768;2023-05-10T08:10:11;55.35;;;23.70;;
4971;SDS011;2501;51.214;6.768;2023-05-10T08:12:42;62.50;;;25.45;;
4971;SDS011;2501;51.214;6.768;2023-05-10T08:15:10;58.17;;;23.45;;
4971;SDS011;2501;51.214;6.768;2023-05-10T08:17:39;52.63;;;25.50;;
4971;SDS011;2501;51.214;6.768;2023-05-10T08:20:08;54.93;;;24.83;;
4971;SDS011;2501;51.214;6.768;2023-05-10T08:22:38;59.38;;;25.08;;
4971;SDS011;2501;51.214;6.768;2023-05-10T08:25:07;65.88;;;24.80;;
4971;SDS011;2501;51.214;6.768;2023-05-10T08:27:38;66.45;;;25.52;;
4971;SDS011;2501;51.214;6.768;2023-05-10T08:30:08;67.38;;;26.08;;
4971;SDS011;2501;51.214;6.768;2023-05-10T08:32:38;65.18;;;26.67;;
4971;SDS011;2501;51.214;6.768;2023-05-10T08:35:06;56.38;;;25.75;;
4971;SDS011;2501;51.214;6.768;2023-05-10T08:37:35;50.75;;;23.13;;
4971;SDS011;2501;51.214;6.768;2023-05-10T08:40:04;55.20;;;23.88;;
4971;SDS011;2501;51.214;6.768;2023-05-10T08:42:34;46.20;;;21.93;;
4971;SDS011;2501;51.214;6.768;2023-05-10T08:45:08;45.50;;;22.02;;
4971;SDS011;2501;51.214;6.768;2023-05-10T08:47:38;51.63;;;24.52;;
4971;SDS011;2501;51.214;6.768;2023-05-10T08:50:07;56.20;;;24.83;;
4971;SDS011;2501;51.214;6.768;2023-05-10T08:52:37;56.85;;;25.13;;
4971;SDS011;2501;51.214;6.768;2023-05-10T08:55:08;56.43;;;23.93;;
4971;SDS011;2501;51.214;6.768;2023-05-10T08:57:39;50.53;;;22.95;;
4971;SDS011;2501;51.214;6.768;2023-05-10T09:00:08;44.55;;;21.98;;
4971;SDS011;2501;51.214;6.768;2023-05-10T09:02:38;51.83;;;22.03;;
4971;SDS011;2501;51.214;6.768;2023-05-10T09:05:07;41.03;;;20.05;;
4971;SDS011;2501;51.214;6.768;2023-05-10T09:07:36;34.72;;;18.30;;
4971;SDS011;2501;51.214;6.768;2023-05-10T09:10:05;42.88;;;17.85;;
4971;SDS011;2501;51.214;6.768;2023-05-10T09:12:38;33.50;;;17.65;;
4971;SDS011;2501;51.214;6.768;2023-05-10T09:15:09;31.67;;;15.02;;
4971;SDS011;2501;51.214;6.768;2023-05-10T09:17:39;38.33;;;15.70;;
4971;SDS011;2501;51.214;6.768;2023-05-10T09:20:09;34.73;;;15.37;;
4971;SDS011;2501;51.214;6.768;2023-05-10T09:22:37;28.63;;;14.55;;
4971;SDS011;2501;51.214;6.768;2023-05-10T09:25:06;33.97;;;16.30;;
4971;SDS011;2501;51.214;6.768;2023-05-10T09:27:39;30.58;;;14.90;;
4971;SDS011;2501;51.214;6.768;2023-05-10T09:30:09;48.00;;;19.27;;
4971;SDS011;2501;51.214;6.768;2023-05-10T09:32:38;40.53;;;15.88;;
4971;SDS011;2501;51.214;6.768;2023-05-10T09:35:08;39.50;;;16.13;;
4971;SDS011;2501;51.214;6.768;2023-05-10T09:37:38;34.67;;;14.30;;
4971;SDS011;2501;51.214;6.768;2023-05-10T09:40:11;34.45;;;14.35;;
4971;SDS011;2501;51.214;6.768;2023-05-10T09:42:53;29.10;;;13.70;;
4971;SDS011;2501;51.214;6.768;2023-05-10T09:45:26;26.08;;;13.30;;
4971;SDS011;2501;51.214;6.768;2023-05-10T09:47:56;23.15;;;13.80;;
4971;SDS011;2501;51.214;6.768;2023-05-10T09:50:25;27.90;;;13.15;;
4971;SDS011;2501;51.214;6.768;2023-05-10T09:52:55;23.13;;;11.60;;
4971;SDS011;2501;51.214;6.768;2023-05-10T09:55:26;19.17;;;11.50;;
4971;SDS011;2501;51.214;6.768;2023-05-10T09:58:09;25.98;;;11.43;;
4971;SDS011;2501;51.214;6.768;2023-05-10T10:00:38;39.80;;;12.20;;
4971;SDS011;2501;51.214;6.768;2023-05-10T10:03:11;21.98;;;12.20;;
4971;SDS011;2501;51.214;6.768;2023-05-10T10:05:42;23.33;;;12.20;;
4971;SDS011;2501;51.214;6.768;2023-05-10T10:08:12;22.05;;;12.50;;
4971;SDS011;2501;51.214;6.768;2023-05-10T10:10:41;26.13;;;13.20;;
4971;SDS011;2501;51.214;6.768;2023-05-10T10:13:13;62.10;;;19.13;;
4971;SDS011;2501;51.214;6.768;2023-05-10T10:15:42;26.65;;;13.32;;
4971;SDS011;2501;51.214;6.768;2023-05-10T10:18:12;27.75;;;14.63;;
4971;SDS011;2501;51.214;6.768;2023-05-10T10:20:42;26.92;;;15.65;;
4971;SDS011;2501;51.214;6.768;2023-05-10T10:23:10;25.10;;;15.67;;
4971;SDS011;2501;51.214;6.768;2023-05-10T10:25:39;25.10;;;13.97;;
4971;SDS011;2501;51.214;6.768;2023-05-10T10:28:12;24.37;;;13.73;;
4971;SDS011;2501;51.214;6.768;2023-05-10T10:30:51;26.63;;;13.70;;
4971;SDS011;2501;51.214;6.768;2023-05-10T10:33:28;21.52;;;13.40;;
4971;SDS011;2501;51.214;6.768;2023-05-10T10:36:04;26.02;;;13.70;;
4971;SDS011;2501;51.214;6.768;2023-05-10T10:38:37;24.17;;;13.02;;
4971;SDS011;2501;51.214;6.768;2023-05-10T10:41:28;25.90;;;12.85;;
4971;SDS011;2501;51.214;6.768;2023-05-10T10:50:02;20.40;;;10.20;;
4971;SDS011;2501;51.214;6.768;2023-05-10T10:52:33;32.27;;;11.73;;
4971;SDS011;2501;51.214;6.768;2023-05-10T10:55:03;74.45;;;18.20;;
4971;SDS011;2501;51.214;6.768;2023-05-10T10:57:42;55.20;;;15.15;;
4971;SDS011;2501;51.214;6.768;2023-05-10T11:00:22;28.70;;;15.20;;
4971;SDS011;2501;51.214;6.768;2023-05-10T11:02:56;47.60;;;16.70;;
4971;SDS011;2501;51.214;6.768;2023-05-10T11:05:33;41.17;;;16.35;;
4971;SDS011;2501;51.214;6.768;2023-05-10T11:08:07;25.80;;;14.20;;
4971;SDS011;2501;51.214;6.768;2023-05-10T11:10:49;32.17;;;15.82;;
4971;SDS011;2501;51.214;6.768;2023-05-10T11:13:28;25.77;;;13.75;;
4971;SDS011;2501;51.214;6.768;2023-05-10T11:16:09;28.88;;;14.48;;
4971;SDS011;2501;51.214;6.768;2023-05-10T11:18:39;37.15;;;15.60;;
4971;SDS011;2501;51.214;6.768;2023-05-10T11:21:08;36.55;;;15.82;;
4971;SDS011;2501;51.214;6.768;2023-05-10T11:23:48;52.55;;;17.25;;
4971;SDS011;2501;51.214;6.768;2023-05-10T11:26:21;51.60;;;17.27;;
4971;SDS011;2501;51.214;6.768;2023-05-10T11:28:51;31.15;;;16.13;;
4971;SDS011;2501;51.214;6.768;2023-05-10T11:31:23;31.50;;;16.40;;
4971;SDS011;2501;51.214;6.768;2023-05-10T11:33:52;33.47;;;16.00;;
4971;SDS011;2501;51.214;6.768;2023-05-10T11:36:23;28.20;;;15.15;;
4971;SDS011;2501;51.214;6.768;2023-05-10T11:38:53;33.17;;;15.60;;
4971;SDS011;2501;51.214;6.768;2023-05-10T11:41:23;27.00;;;14.18;;
4971;SDS011;2501;51.214;6.768;2023-05-10T11:43:53;24.90;;;14.60;;
4971;SDS011;2501;51.214;6.768;2023-05-10T11:46:26;28.13;;;13.93;;
4971;SDS011;2501;51.214;6.768;2023-05-10T11:48:56;23.77;;;13.50;;
4971;SDS011;2501;51.214;6.768;2023-05-10T11:51:26;22.75;;;12.82;;
4971;SDS011;2501;51.214;6.768;2023-05-10T11:53:56;28.23;;;13.00;;
4971;SDS011;2501;51.214;6.768;2023-05-10T11:56:24;39.47;;;14.82;;
4971;SDS011;2501;51.214;6.768;2023-05-10T11:58:54;21.38;;;13.43;;
4971;SDS011;2501;51.214;6.768;2023-05-10T12:01:28;25.25;;;14.63;;
4971;SDS011;2501;51.214;6.768;2023-05-10T12:03:57;34.80;;;15.20;;
4971;SDS011;2501;51.214;6.768;2023-05-10T12:06:27;26.20;;;15.18;;
4971;SDS011;2501;51.214;6.768;2023-05-10T12:08:56;39.75;;;15.18;;
4971;SDS011;2501;51.214;6.768;2023-05-10T12:11:26;25.95;;;14.93;;
4971;SDS011;2501;51.214;6.768;2023-05-10T12:13:56;27.63;;;15.73;;
4971;SDS011;2501;51.214;6.768;2023-05-10T12:16:24;27.40;;;15.68;;
4971;SDS011;2501;51.214;6.768;2023-05-10T12:18:57;28.40;;;14.10;;
4971;SDS011;2501;51.214;6.768;2023-05-10T12:21:28;27.67;;;15.23;;
4971;SDS011;2501;51.214;6.768;2023-05-10T12:23:59;29.85;;;15.23;;
4971;SDS011;2501;51.214;6.768;2023-05-10T12:26:30;30.37;;;14.43;;
4971;SDS011;2501;51.214;6.768;2023-05-10T12:29:11;36.17;;;14.68;;
4971;SDS011;2501;51.214;6.768;2023-05-10T12:31:56;28.05;;;14.40;;
4971;SDS011;2501;51.214;6.768;2023-05-10T12:34:25;25.77;;;14.32;;
4971;SDS011;2501;51.214;6.768;2023-05-10T12:36:54;24.00;;;14.70;;
4971;SDS011;2501;51.214;6.768;2023-05-10T12:39:23;26.27;;;15.10;;
4971;SDS011;2501;51.214;6.768;2023-05-10T12:41:52;27.13;;;15.77;;
4971;SDS011;2501;51.214;6.768;2023-05-10T12:44:20;28.45;;;15.13;;
4971;SDS011;2501;51.214;6.768;2023-05-10T12:46:49;24.85;;;14.27;;
4971;SDS011;2501;51.214;6.768;2023-05-10T12:49:20;49.95;;;16.80;;
4971;SDS011;2501;51.214;6.768;2023-05-10T12:51:48;28.67;;;15.48;;
4971;SDS011;2501;51.214;6.768;2023-05-10T12:54:17;27.65;;;15.32;;
4971;SDS011;2501;51.214;6.768;2023-05-10T12:56:45;23.38;;;14.43;;
4971;SDS011;2501;51.214;6.768;2023-05-10T12:59:14;25.05;;;14.80;;
4971;SDS011;2501;51.214;6.768;2023-05-10T13:01:42;24.42;;;14.48;;
4971;SDS011;2501;51.214;6.768;2023-05-10T13:04:10;26.23;;;15.43;;
4971;SDS011;2501;51.214;6.768;2023-05-10T13:06:41;24.70;;;14.30;;
4971;SDS011;2501;51.214;6.768;2023-05-10T13:09:10;20.58;;;13.00;;
4971;SDS011;2501;51.214;6.768;2023-05-10T13:11:38;22.48;;;14.13;;
4971;SDS011;2501;51.214;6.768;2023-05-10T13:14:07;20.75;;;13.45;;
4971;SDS011;2501;51.214;6.768;2023-05-10T13:16:35;28.75;;;13.35;;
4971;SDS011;2501;51.214;6.768;2023-05-10T13:19:04;23.48;;;14.48;;
4971;SDS011;2501;51.214;6.768;2023-05-10T13:21:32;22.42;;;14.10;;
4971;SDS011;2501;51.214;6.768;2023-05-10T13:24:04;19.10;;;12.70;;
4971;SDS011;2501;51.214;6.768;2023-05-10T13:26:32;37.97;;;12.88;;
4971;SDS011;2501;51.214;6.768;2023-05-10T13:29:01;22.05;;;13.57;;
4971;SDS011;2501;51.214;6.768;2023-05-10T13:31:30;22.13;;;12.83;;
4971;SDS011;2501;51.214;6.768;2023-05-10T13:33:58;23.77;;;12.70;;
4971;SDS011;2501;51.214;6.768;2023-05-10T13:36:27;20.52;;;11.60;;
4971;SDS011;2501;51.214;6.768;2023-05-10T13:38:56;24.25;;;12.45;;
4971;SDS011;2501;51.214;6.768;2023-05-10T13:41:29;27.65;;;13.32;;
4971;SDS011;2501;51.214;6.768;2023-05-10T13:43:57;19.52;;;12.18;;
4971;SDS011;2501;51.214;6.768;2023-05-10T13:46:25;21.73;;;12.80;;
4971;SDS011;2501;51.214;6.768;2023-05-10T13:48:54;23.73;;;12.35;;
4971;SDS011;2501;51.214;6.768;2023-05-10T13:51:23;22.80;;;12.05;;
4971;SDS011;2501;51.214;6.768;2023-05-10T13:53:51;21.58;;;11.38;;
4971;SDS011;2501;51.214;6.768;2023-05-10T13:56:20;21.77;;;11.90;;
4971;SDS011;2501;51.214;6.768;2023-05-10T13:58:51;29.48;;;13.88;;
4971;SDS011;2501;51.214;6.768;2023-05-10T14:01:19;22.55;;;11.60;;
4971;SDS011;2501;51.214;6.768;2023-05-10T14:03:48;21.45;;;11.82;;
4971;SDS011;2501;51.214;6.768;2023-05-10T14:06:17;18.02;;;11.70;;
4971;SDS011;2501;51.214;6.768;2023-05-10T14:08:45;17.98;;;11.05;;
4971;SDS011;2501;51.214;6.768;2023-05-10T14:11:14;17.37;;;11.83;;
4971;SDS011;2501;51.214;6.768;2023-05-10T14:13:42;21.02;;;12.73;;
4971;SDS011;2501;51.214;6.768;2023-05-10T14:16:13;18.35;;;11.82;;
4971;SDS011;2501;51.214;6.768;2023-05-10T14:18:42;19.63;;;11.32;;
4971;SDS011;2501;51.214;6.768;2023-05-10T14:21:11;24.17;;;11.30;;
4971;SDS011;2501;51.214;6.768;2023-05-10T14:23:40;19.33;;;10.80;;
4971;SDS011;2501;51.214;6.768;2023-05-10T14:26:09;12.30;;;8.63;;
4971;SDS011;2501;51.214;6.768;2023-05-10T14:28:37;14.63;;;9.40;;
4971;SDS011;2501;51.214;6.768;2023-05-10T14:31:06;12.43;;;8.45;;
4971;SDS011;2501;51.214;6.768;2023-05-10T14:33:40;17.20;;;8.27;;
4971;SDS011;2501;51.214;6.768;2023-05-10T14:36:10;10.95;;;7.65;;
4971;SDS011;2501;51.214;6.768;2023-05-10T14:38:38;13.87;;;7.57;;
4971;SDS011;2501;51.214;6.768;2023-05-10T14:41:07;12.23;;;8.00;;
4971;SDS011;2501;51.214;6.768;2023-05-10T14:43:39;9.05;;;6.50;;
4971;SDS011;2501;51.214;6.768;2023-05-10T14:46:07;9.32;;;7.10;;
4971;SDS011;2501;51.214;6.768;2023-05-10T14:48:36;14.05;;;7.55;;
4971;SDS011;2501;51.214;6.768;2023-05-10T14:51:08;9.32;;;6.35;;
4971;SDS011;2501;51.214;6.768;2023-05-10T14:53:40;7.10;;;6.38;;
4971;SDS011;2501;51.214;6.768;2023-05-10T14:56:08;7.55;;;5.47;;
4971;SDS011;2501;51.214;6.768;2023-05-10T14:58:37;7.65;;;4.88;;
4971;SDS011;2501;51.214;6.768;2023-05-10T15:01:05;11.32;;;6.43;;
4971;SDS011;2501;51.214;6.768;2023-05-10T15:03:34;8.87;;;5.80;;
4971;SDS011;2501;51.214;6.768;2023-05-10T15:06:03;7.93;;;5.40;;
4971;SDS011;2501;51.214;6.768;2023-05-10T15:08:34;5.25;;;4.43;;
4971;SDS011;2501;51.214;6.768;2023-05-10T15:11:03;4.97;;;4.47;;
4971;SDS011;2501;51.214;6.768;2023-05-10T15:13:32;5.03;;;4.22;;
4971;SDS011;2501;51.214;6.768;2023-05-10T15:16:00;7.45;;;4.80;;
4971;SDS011;2501;51.214;6.768;2023-05-10T15:18:28;6.20;;;4.95;;
4971;SDS011;2501;51.214;6.768;2023-05-10T15:20:57;8.30;;;5.63;;